Time;durP1;ratioP1;P1;durP2;ratioP2;P2;SDS_P1;SDS_P2;PMS_P1;PMS_P2;Temp;Humidity;BMP_temperature;BMP_pressure;BME280_temperature;BME280_humidity;BME280_pressure;Samples;Min_cycle;Max_cycle;Signal;HPM_P1;HPM_P2
2022/08/08 00:02:36;;;;;;;43.35;19.85;;;;;;;19.50;65.48;100712.23;1884569;76;21060;-70
2022/08/08 00:05:25;;;;;;;44.83;19.30;;;;;;;19.52;65.50;100717.81;1892055;76;21134;-72
2022/08/08 00:08:15;;;;;;;36.15;16.10;;;;;;;19.58;65.66;100715.98;1887651;76;21162;-70
2022/08/08 00:10:58;;;;;;;35.28;15.60;;;;;;;19.51;65.54;100720.09;1882951;76;21056;-69
2022/08/08 00:13:41;;;;;;;32.08;14.03;;;;;;;19.41;65.68;100729.80;1878257;76;21048;-70
2022/08/08 00:16:13;;;;;;;26.75;12.88;;;;;;;19.39;66.00;100726.40;1875764;76;21052;-69
2022/08/08 00:18:50;;;;;;;21.95;9.55;;;;;;;19.36;66.14;100731.96;1878661;76;21048;-70
2022/08/08 00:21:25;;;;;;;13.65;6.17;;;;;;;19.29;66.37;100729.77;1883338;76;21161;-69
2022/08/08 00:23:56;;;;;;;16.07;6.85;;;;;;;19.25;66.51;100729.61;1883206;76;21049;-70
2022/08/08 00:26:31;;;;;;;14.45;7.08;;;;;;;19.23;66.66;100730.70;1882499;76;21080;-69
2022/08/08 00:29:17;;;;;;;15.00;6.53;;;;;;;19.14;67.09;100732.24;1883021;76;21169;-69
2022/08/08 00:31:49;;;;;;;14.33;5.58;;;;;;;19.10;67.27;100728.11;1881433;76;21060;-69
2022/08/08 00:37:31;;;;;;;11.53;5.33;;;;;;;19.10;67.59;100730.78;1883384;76;21041;-68
2022/08/08 00:40:06;;;;;;;;;;;;;;;19.09;67.30;100727.76;1886279;76;21569;-68
2022/08/08 00:42:43;;;;;;;7.17;3.77;;;;;;;19.03;67.12;100727.73;1883382;76;20148;-68
2022/08/08 00:45:37;;;;;;;8.68;4.37;;;;;;;18.99;66.74;100730.73;1879506;76;21498;-68
2022/08/08 00:48:12;;;;;;;13.08;4.15;;;;;;;18.90;66.80;100730.47;1881080;76;21498;-68
2022/08/08 00:51:05;;;;;;;8.93;4.30;;;;;;;18.84;66.80;100726.05;1883427;76;21122;-68
2022/08/08 00:53:49;;;;;;;9.18;4.00;;;;;;;18.77;67.10;100734.11;1883601;76;21072;-68
2022/08/08 00:56:40;;;;;;;9.38;4.10;;;;;;;18.66;67.57;100735.73;1881694;76;21118;-68
2022/08/08 00:59:34;;;;;;;10.80;4.72;;;;;;;18.55;67.99;100736.16;1883435;76;21507;-68
2022/08/08 01:02:39;;;;;;;12.88;4.10;;;;;;;18.38;68.65;100736.89;1880573;76;21542;-68
2022/08/08 01:05:37;;;;;;;10.45;4.05;;;;;;;18.26;69.13;100742.63;1883407;76;21084;-67
2022/08/08 01:08:25;;;;;;;8.93;3.87;;;;;;;18.12;69.34;100744.93;1883234;76;21095;-68
2022/08/08 01:11:02;;;;;;;11.75;4.40;;;;;;;17.96;70.05;100748.30;1889053;76;21145;-68
2022/08/08 01:13:50;;;;;;;9.08;4.47;;;;;;;17.89;70.28;100747.02;1891136;76;21115;-68
2022/08/08 01:16:30;;;;;;;9.58;4.08;;;;;;;17.96;70.59;100741.64;1891745;76;21192;-68
2022/08/08 01:19:38;;;;;;;8.10;4.20;;;;;;;18.02;70.51;100745.68;1891581;75;21169;-68
2022/08/08 01:22:38;;;;;;;7.80;3.77;;;;;;;18.05;70.51;100750.31;1892694;76;21134;-69
2022/08/08 01:25:40;;;;;;;7.17;3.85;;;;;;;18.09;70.29;100745.63;1892627;76;21129;-69
2022/08/08 01:28:16;;;;;;;15.25;3.85;;;;;;;18.08;70.73;100747.45;1892596;76;21106;-69
2022/08/08 01:31:00;;;;;;;8.60;3.72;;;;;;;18.08;70.29;100750.59;1892654;76;21122;-69
2022/08/08 01:33:49;;;;;;;7.60;3.62;;;;;;;18.10;70.61;100743.34;1892634;76;21660;-68
2022/08/08 01:36:44;;;;;;;7.95;3.72;;;;;;;18.09;70.35;100750.50;1885851;76;21599;-68
2022/08/08 01:39:48;;;;;;;10.32;4.05;;;;;;;18.07;70.52;100748.88;1892663;76;21592;-68
2022/08/08 01:42:27;;;;;;;7.55;3.58;;;;;;;18.07;70.59;100744.39;1892847;76;21075;-68
2022/08/08 01:45:02;;;;;;;10.93;4.97;;;;;;;18.00;70.38;100748.48;1892275;75;21083;-68
2022/08/08 01:47:59;;;;;;;8.68;3.80;;;;;;;17.99;70.62;100751.25;1892727;76;21079;-68
2022/08/08 01:50:35;;;;;;;10.00;3.62;;;;;;;17.94;70.78;100756.88;1892709;76;21082;-68
2022/08/08 01:53:19;;;;;;;10.88;4.15;;;;;;;17.86;70.65;100752.09;1892702;76;21134;-68
2022/08/08 01:56:05;;;;;;;;;;;;;;;17.83;70.88;100759.41;1895418;76;21012;-68
2022/08/08 01:58:43;;;;;;;5.42;3.50;;;;;;;17.79;71.26;100759.25;1892620;76;20116;-68
2022/08/08 02:01:28;;;;;;;7.78;3.90;;;;;;;17.73;71.08;100764.03;1892184;76;21527;-68
2022/08/08 02:04:09;;;;;;;9.58;3.27;;;;;;;17.69;71.37;100764.37;1892598;76;21150;-68
2022/08/08 02:07:05;;;;;;;7.53;3.92;;;;;;;17.73;71.67;100766.70;1892690;76;21071;-69
2022/08/08 02:09:57;;;;;;;9.68;4.78;;;;;;;17.74;71.45;100773.75;1892248;76;21123;-69
2022/08/08 02:12:31;;;;;;;15.60;4.85;;;;;;;17.75;71.58;100775.92;1891440;76;21590;-69
2022/08/08 02:15:10;;;;;;;7.40;3.80;;;;;;;17.78;71.29;100780.17;1892707;76;21102;-70
2022/08/08 02:17:52;;;;;;;11.05;4.37;;;;;;;17.74;71.28;100783.06;1892463;75;21575;-69
2022/08/08 02:20:30;;;;;;;6.58;3.90;;;;;;;17.74;71.33;100784.85;1891282;76;21137;-68
2022/08/08 02:23:22;;;;;;;11.80;4.30;;;;;;;17.87;71.16;100786.23;1890972;75;21193;-68
2022/08/08 02:25:57;;;;;;;10.80;4.75;;;;;;;17.99;71.09;100789.39;1892663;76;21511;-68
2022/08/08 02:28:43;;;;;;;9.88;4.42;;;;;;;18.30;70.80;100793.91;1892700;76;21020;-67
2022/08/08 02:31:48;;;;;;;9.60;4.08;;;;;;;18.46;70.34;100795.86;1888400;76;21487;-68
2022/08/08 02:34:32;;;;;;;11.43;4.85;;;;;;;18.32;70.24;100801.31;1892738;76;21183;-68
2022/08/08 02:37:10;;;;;;;8.50;4.42;;;;;;;18.22;70.37;100796.25;1891823;75;21068;-68
2022/08/08 02:39:57;;;;;;;10.88;3.95;;;;;;;18.06;70.37;100805.33;1891160;76;21146;-68
2022/08/08 02:42:45;;;;;;;7.28;4.15;;;;;;;17.91;70.28;100805.06;1891736;76;21633;-68
2022/08/08 02:45:39;;;;;;;15.05;4.30;;;;;;;17.81;70.44;100807.45;1892663;76;21079;-68
2022/08/08 02:48:29;;;;;;;6.37;3.95;;;;;;;17.79;70.96;100808.03;1891035;76;21145;-68
2022/08/08 02:51:25;;;;;;;11.30;4.58;;;;;;;17.92;71.03;100810.75;1888625;76;21052;-68
2022/08/08 02:54:00;;;;;;;10.32;4.25;;;;;;;17.96;70.94;100813.56;1892554;76;21487;-68
2022/08/08 02:56:38;;;;;;;11.25;4.53;;;;;;;17.96;70.92;100812.23;1892521;76;21157;-68
2022/08/08 02:59:30;;;;;;;7.97;3.83;;;;;;;18.00;71.22;100819.53;1889472;76;21060;-68
2022/08/08 03:02:11;;;;;;;10.90;4.17;;;;;;;18.20;71.83;100826.15;1892660;76;21139;-67
2022/08/08 03:04:51;;;;;;;10.80;4.03;;;;;;;18.39;72.09;100828.37;1892683;76;21095;-68
2022/08/08 03:07:28;;;;;;;7.05;3.65;;;;;;;18.55;72.03;100829.48;1892679;76;21117;-67
2022/08/08 03:10:33;;;;;;;9.43;3.65;;;;;;;18.69;71.91;100837.36;1882841;76;21158;-68
2022/08/08 03:13:40;;;;;;;8.78;4.90;;;;;;;18.88;71.83;100837.75;1883371;76;21633;-68
2022/08/08 03:16:30;;;;;;;13.00;4.65;;;;;;;19.06;71.54;100844.06;1882807;76;21157;-67
2022/08/08 03:19:18;;;;;;;10.93;3.98;;;;;;;19.18;71.37;100843.17;1883321;76;21040;-68
2022/08/08 03:21:45;;;;;;;9.88;4.30;;;;;;;19.35;71.18;100853.06;1883355;76;21581;-68
2022/08/08 03:24:19;;;;;;;11.10;3.87;;;;;;;19.43;70.87;100845.34;1883440;76;21474;-67
2022/08/08 03:26:53;;;;;;;9.50;4.12;;;;;;;19.53;70.73;100853.05;1883541;76;21032;-67
2022/08/08 03:29:25;;;;;;;8.73;3.95;;;;;;;19.60;70.65;100848.92;1883328;76;21064;-68
2022/08/08 03:34:43;;;;;;;11.60;5.20;;;;;;;19.75;70.20;100850.11;1883329;76;21494;-68
2022/08/08 03:37:17;;;;;;;10.53;5.05;;;;;;;19.89;70.13;100860.60;1883490;76;21064;-68
2022/08/08 03:39:46;;;;;;;11.53;4.87;;;;;;;20.05;70.22;100858.95;1883206;76;21060;-68
2022/08/08 03:42:17;;;;;;;20.57;6.35;;;;;;;20.21;69.74;100861.27;1883557;76;21576;-67
2022/08/08 03:44:46;;;;;;;17.17;6.65;;;;;;;20.34;69.35;100867.35;1883194;76;21096;-67
2022/08/08 03:47:17;;;;;;;17.25;5.70;;;;;;;20.47;68.93;100870.41;1883396;76;21056;-67
2022/08/08 03:49:46;;;;;;;13.40;5.95;;;;;;;20.64;68.69;100875.33;1883437;76;21049;-67
2022/08/08 03:52:16;;;;;;;17.50;5.80;;;;;;;20.79;68.54;100887.47;1883223;76;21154;-69
2022/08/08 03:54:46;;;;;;;15.58;5.87;;;;;;;21.00;68.12;100881.37;1883370;76;21122;-68
2022/08/08 03:57:16;;;;;;;12.37;4.62;;;;;;;21.20;67.70;100879.75;1883300;76;21068;-68
2022/08/08 03:59:45;;;;;;;9.13;4.67;;;;;;;21.38;67.24;100882.75;1883266;76;21112;-68
2022/08/08 04:02:20;;;;;;;11.45;4.35;;;;;;;21.70;66.65;100891.31;1883292;76;21114;-67
2022/08/08 04:04:54;;;;;;;12.90;4.92;;;;;;;22.01;65.95;100887.39;1883306;76;21499;-68
2022/08/08 04:07:19;;;;;;;10.65;4.58;;;;;;;22.35;65.22;100890.72;1882752;76;21068;-67
2022/08/08 04:09:56;;;;;;;14.30;5.30;;;;;;;22.73;64.27;100900.80;1875622;76;21153;-67
